createdAt,value
2022-08-16T00:02:32.130Z,99757.56
2022-08-16T00:04:59.012Z,99768.91
2022-08-16T00:07:29.092Z,99775.56
2022-08-16T00:09:57.947Z,99764.84
2022-08-16T00:12:28.135Z,99761.50
2022-08-16T00:14:56.374Z,99762.97
2022-08-16T00:17:25.673Z,99753.38
2022-08-16T00:19:53.687Z,99752.91
2022-08-16T00:22:25.570Z,99750.16
2022-08-16T00:24:55.210Z,99757.81
2022-08-16T00:27:23.263Z,99757.31
2022-08-16T00:30:08.256Z,99746.00
2022-08-16T00:32:40.601Z,99746.13
2022-08-16T00:35:15.660Z,99746.06
2022-08-16T00:37:58.947Z,99738.09
2022-08-16T00:40:50.771Z,99735.22
2022-08-16T00:43:42.480Z,99693.13
2022-08-16T00:46:36.254Z,99691.53
2022-08-16T00:49:18.949Z,99684.53
2022-08-16T00:51:47.782Z,99674.22
2022-08-16T00:54:24.674Z,99674.28
2022-08-16T00:56:57.573Z,99672.84
2022-08-16T00:59:30.051Z,99665.25
2022-08-16T01:02:01.084Z,99676.41
2022-08-16T01:05:10.855Z,99681.44
2022-08-16T01:07:51.150Z,99684.38
2022-08-16T01:10:32.201Z,99680.25
2022-08-16T01:13:06.532Z,99687.16
2022-08-16T01:15:36.233Z,99701.78
2022-08-16T01:18:08.439Z,99692.19
2022-08-16T01:21:33.759Z,99692.03
2022-08-16T01:24:53.678Z,99687.34
2022-08-16T01:27:30.995Z,99679.91
2022-08-16T01:30:20.547Z,99683.63
2022-08-16T01:33:01.407Z,99690.66
2022-08-16T01:35:43.656Z,99698.75
2022-08-16T01:38:28.201Z,99685.59
2022-08-16T01:41:02.994Z,99684.31
2022-08-16T01:43:31.774Z,99684.03
2022-08-16T01:46:37.791Z,99710.56
2022-08-16T01:48:53.563Z,99714.50
2022-08-16T01:51:23.601Z,99715.16
2022-08-16T01:53:55.277Z,99703.03
2022-08-16T01:56:24.909Z,99709.88
2022-08-16T01:58:55.004Z,99703.97
2022-08-16T02:01:22.955Z,99698.47
2022-08-16T02:03:52.649Z,99702.75
2022-08-16T02:06:33.827Z,99697.09
2022-08-16T02:09:05.359Z,99703.66
2022-08-16T02:11:47.584Z,99697.03
2022-08-16T02:14:18.125Z,99698.47
2022-08-16T02:16:45.174Z,99706.06
2022-08-16T02:19:16.109Z,99704.94
2022-08-16T02:22:08.584Z,99703.78
2022-08-16T02:24:42.158Z,99714.22
2022-08-16T02:27:12.849Z,99720.69
2022-08-16T02:29:41.542Z,99719.56
2022-08-16T02:32:50.235Z,99715.81
2022-08-16T02:34:58.396Z,99712.28
2022-08-16T02:37:51.175Z,99714.88
2022-08-16T02:40:13.328Z,99721.75
2022-08-16T02:42:45.627Z,99716.81
2022-08-16T02:45:17.309Z,99707.09
2022-08-16T02:48:00.738Z,99712.88
2022-08-16T02:51:04.111Z,99714.69
2022-08-16T02:53:23.545Z,99710.31
2022-08-16T02:55:51.500Z,99716.41
2022-08-16T02:58:20.542Z,99717.78
2022-08-16T03:00:57.173Z,99727.50
2022-08-16T03:03:26.393Z,99720.00
2022-08-16T03:05:54.347Z,99712.28
2022-08-16T03:08:50.267Z,99707.94
2022-08-16T03:11:16.931Z,99708.06
2022-08-16T03:13:51.201Z,99709.13
2022-08-16T03:16:38.250Z,99710.81
2022-08-16T03:19:08.338Z,99704.16
2022-08-16T03:21:37.763Z,99696.94
2022-08-16T03:24:28.551Z,99701.63
2022-08-16T03:26:59.239Z,99700.44
2022-08-16T03:29:30.067Z,99704.91
2022-08-16T03:31:59.191Z,99702.03
2022-08-16T03:34:26.995Z,99707.88
2022-08-16T03:36:54.749Z,99703.41
2022-08-16T03:39:22.134Z,99705.44
2022-08-16T03:41:51.318Z,99698.63
2022-08-16T03:44:44.158Z,99702.25
2022-08-16T03:47:19.265Z,99696.09
2022-08-16T03:49:51.641Z,99679.72
2022-08-16T03:52:23.466Z,99679.16
2022-08-16T03:54:57.469Z,99680.59
2022-08-16T03:57:24.945Z,99689.03
2022-08-16T03:59:59.081Z,99691.81
2022-08-16T04:02:31.735Z,99689.03
2022-08-16T04:04:58.865Z,99685.25
2022-08-16T04:07:25.889Z,99691.66
2022-08-16T04:09:52.703Z,99689.16
2022-08-16T04:12:53.479Z,99682.47
2022-08-16T04:15:09.631Z,99685.25
2022-08-16T04:17:37.225Z,99689.63
2022-08-16T04:20:11.080Z,99683.06
2022-08-16T04:22:56.197Z,99635.72
2022-08-16T04:25:23.535Z,99630.38
2022-08-16T04:27:54.121Z,99635.09
2022-08-16T04:30:30.235Z,99630.34
2022-08-16T04:32:58.785Z,99623.13
2022-08-16T04:35:26.433Z,99623.13
2022-08-16T04:38:00.890Z,99610.50
2022-08-16T04:40:38.502Z,99597.69
2022-08-16T04:43:05.805Z,99576.69
2022-08-16T04:45:36.628Z,99563.72
2022-08-16T04:48:04.405Z,99546.84
2022-08-16T04:50:31.384Z,99533.88
2022-08-16T04:52:59.241Z,99516.91
2022-08-16T04:55:37.939Z,99491.91
2022-08-16T04:58:43.693Z,99457.97
2022-08-16T05:00:55.055Z,99442.31
2022-08-16T05:03:21.951Z,99438.09
2022-08-16T05:05:58.996Z,99434.00
2022-08-16T05:08:30.915Z,99423.22
2022-08-16T05:11:05.504Z,99419.41
2022-08-16T05:13:41.134Z,99412.19
2022-08-16T05:16:27.605Z,99420.22
2022-08-16T05:18:58.610Z,99410.72
2022-08-16T05:21:27.040Z,99404.78
2022-08-16T05:23:58.685Z,99401.63
2022-08-16T05:26:29.256Z,99396.13
2022-08-16T05:28:57.612Z,99390.59
2022-08-16T05:31:29.872Z,99391.44
2022-08-16T05:33:59.537Z,99389.53
2022-08-16T05:36:33.810Z,99386.78
2022-08-16T05:39:02.872Z,99389.13
2022-08-16T05:41:29.634Z,99378.53
2022-08-16T05:44:00.256Z,99395.75
2022-08-16T05:46:32.589Z,99388.97
2022-08-16T05:49:09.048Z,99386.41
2022-08-16T05:51:38.991Z,99390.69
2022-08-16T05:54:08.185Z,99388.75
2022-08-16T05:56:37.379Z,99395.97
2022-08-16T05:59:06.430Z,99397.88
2022-08-16T06:01:38.415Z,99405.13
2022-08-16T06:04:13.088Z,99406.59
2022-08-16T06:06:57.573Z,99410.84
2022-08-16T06:09:43.837Z,99416.84
2022-08-16T06:12:27.177Z,99413.19
2022-08-16T06:14:59.164Z,99405.16
2022-08-16T06:17:43.164Z,99402.16
2022-08-16T06:20:14.863Z,99407.91
2022-08-16T06:22:47.741Z,99394.41
2022-08-16T06:25:36.107Z,99397.16
2022-08-16T06:28:08.948Z,99402.19
2022-08-16T06:30:43.279Z,99408.63
2022-08-16T06:33:12.718Z,99407.19
2022-08-16T06:35:40.575Z,99406.53
2022-08-16T06:38:33.684Z,99418.63
2022-08-16T06:40:55.608Z,99413.34
2022-08-16T06:43:27.782Z,99418.47
2022-08-16T06:45:55.618Z,99412.53
2022-08-16T06:48:32.941Z,99418.47
2022-08-16T06:51:02.642Z,99411.72
2022-08-16T06:53:29.806Z,99416.78
2022-08-16T06:56:00.758Z,99423.56
2022-08-16T06:58:31.717Z,99430.78
2022-08-16T07:01:03.065Z,99440.09
2022-08-16T07:03:55.957Z,99443.75
2022-08-16T07:06:26.714Z,99475.06
2022-08-16T07:08:54.822Z,99494.06
2022-08-16T07:11:45.765Z,99528.63
2022-08-16T07:14:24.333Z,99548.97
2022-08-16T07:16:55.134Z,99568.53
2022-08-16T07:19:21.963Z,99588.16
2022-08-16T07:22:39.139Z,99606.44
2022-08-16T07:24:55.716Z,99626.75
2022-08-16T07:27:22.555Z,99656.53
2022-08-16T07:29:55.661Z,99696.22
2022-08-16T07:32:29.654Z,99694.91
2022-08-16T07:34:58.768Z,99713.69
2022-08-16T07:37:25.665Z,99738.63
2022-08-16T07:39:56.956Z,99750.94
2022-08-16T07:42:34.673Z,99780.03
2022-08-16T07:45:03.568Z,99816.91
2022-08-16T07:47:36.796Z,99851.03
2022-08-16T07:50:05.444Z,99893.25
2022-08-16T07:52:34.401Z,99915.44
2022-08-16T07:55:01.394Z,99938.69
2022-08-16T07:57:28.202Z,99958.72
2022-08-16T07:59:57.092Z,99968.09
2022-08-16T08:02:27.511Z,99989.84
2022-08-16T08:04:56.170Z,100010.28
2022-08-16T08:07:27.511Z,100027.78
2022-08-16T08:09:56.430Z,100048.69
2022-08-16T08:12:31.382Z,100060.69
2022-08-16T08:14:59.501Z,100101.56
2022-08-16T08:17:42.564Z,100117.81
2022-08-16T08:20:13.513Z,100147.72
2022-08-16T08:23:00.804Z,100170.78
2022-08-16T08:25:53.707Z,100199.41
2022-08-16T08:28:17.872Z,100240.63
2022-08-16T08:30:50.961Z,100273.75
2022-08-16T08:33:27.740Z,100327.47
2022-08-16T08:36:01.149Z,100371.91
2022-08-16T08:38:45.071Z,100427.44
2022-08-16T08:41:15.412Z,100457.22
2022-08-16T08:43:47.154Z,100490.53
2022-08-16T08:46:21.174Z,100509.75
2022-08-16T08:49:01.940Z,100531.75
2022-08-16T08:51:35.696Z,100554.63
2022-08-16T08:54:09.447Z,100571.28
2022-08-16T08:56:45.313Z,100580.69
2022-08-16T08:59:20.370Z,100598.50
2022-08-16T09:01:57.403Z,100604.50
2022-08-16T09:04:28.956Z,100613.91
2022-08-16T09:06:58.452Z,100623.75
2022-08-16T09:09:33.170Z,100627.00
2022-08-16T09:12:06.516Z,100638.97
2022-08-16T09:14:38.768Z,100633.56
2022-08-16T09:17:38.165Z,100627.59
2022-08-16T09:20:05.940Z,100625.78
2022-08-16T09:22:34.657Z,100631.50
2022-08-16T09:25:09.739Z,100627.41
2022-08-16T09:27:57.083Z,100636.59
2022-08-16T09:30:34.789Z,100645.16
2022-08-16T09:33:12.071Z,100664.03
2022-08-16T09:35:39.464Z,100648.84
2022-08-16T09:38:09.955Z,100646.38
2022-08-16T09:40:43.965Z,100631.81
2022-08-16T09:43:46.371Z,100632.81
2022-08-16T09:46:00.518Z,100636.47
2022-08-16T09:48:44.182Z,100627.34
2022-08-16T09:51:13.360Z,100634.88
2022-08-16T09:53:41.843Z,100629.22
2022-08-16T09:56:31.556Z,100638.94
2022-08-16T09:59:04.976Z,100621.31
2022-08-16T10:01:36.493Z,100598.53
2022-08-16T10:04:13.106Z,100605.28
2022-08-16T10:06:54.085Z,100617.88
2022-08-16T10:09:25.310Z,100608.78
2022-08-16T10:12:11.652Z,100622.66
2022-08-16T10:14:46.397Z,100623.13
2022-08-16T10:17:13.584Z,100627.44
2022-08-16T10:19:43.374Z,100610.84
2022-08-16T10:22:12.798Z,100619.78
2022-08-16T10:27:18.693Z,100628.56
2022-08-16T10:28:05.892Z,100649.00
2022-08-16T10:30:43.690Z,100676.47
2022-08-16T10:33:13.694Z,100692.94
2022-08-16T10:35:46.571Z,100707.72
2022-08-16T10:38:27.232Z,100684.66
2022-08-16T10:40:54.823Z,100671.38
2022-08-16T10:43:21.712Z,100642.88
2022-08-16T10:46:00.290Z,100635.94
2022-08-16T10:48:29.990Z,100619.19
2022-08-16T10:50:59.482Z,100623.84
2022-08-16T10:53:32.762Z,100626.25
2022-08-16T10:56:02.431Z,100623.59
2022-08-16T10:58:34.281Z,100611.63
2022-08-16T11:03:57.412Z,100595.88
2022-08-16T11:06:26.998Z,100590.72
2022-08-16T11:14:31.856Z,100601.78
2022-08-16T11:17:02.746Z,100622.09
2022-08-16T11:20:00.544Z,100616.78
2022-08-16T11:22:41.863Z,100618.03
2022-08-16T11:25:12.380Z,100586.53
2022-08-16T11:27:39.773Z,100609.50
2022-08-16T11:30:09.373Z,100608.16
2022-08-16T11:32:39.728Z,100626.44
2022-08-16T11:35:15.265Z,100619.53
2022-08-16T11:40:47.063Z,100609.13
2022-08-16T11:43:23.769Z,100597.88
2022-08-16T11:45:55.194Z,100642.22
2022-08-16T11:48:25.988Z,100643.59
2022-08-16T11:50:54.122Z,100605.09
2022-08-16T11:53:22.139Z,100620.69
2022-08-16T11:55:54.448Z,100649.38
2022-08-16T11:58:23.237Z,100630.94
2022-08-16T12:00:53.325Z,100649.53
2022-08-16T12:03:34.973Z,100650.53
2022-08-16T12:06:25.146Z,100641.50
2022-08-16T12:09:01.061Z,100655.47
2022-08-16T12:11:31.503Z,100674.66
2022-08-16T12:14:04.370Z,100653.84
2022-08-16T12:16:34.236Z,100684.84
2022-08-16T12:19:06.963Z,100613.88
2022-08-16T12:21:58.184Z,100644.91
2022-08-16T12:24:28.197Z,100621.72
2022-08-16T12:26:56.034Z,100643.84
2022-08-16T12:29:25.830Z,100645.00
2022-08-16T12:32:01.336Z,100625.84
2022-08-16T12:34:50.865Z,100656.50
2022-08-16T12:37:24.138Z,100681.34
2022-08-16T12:39:56.462Z,100634.47
2022-08-16T12:42:34.684Z,100645.81
2022-08-16T12:45:09.700Z,100636.72
2022-08-16T12:48:09.909Z,100655.09
2022-08-16T12:50:42.671Z,100693.34
2022-08-16T12:53:18.019Z,100694.66
2022-08-16T12:55:45.546Z,100632.00
2022-08-16T12:58:49.770Z,100629.16
2022-08-16T13:01:01.901Z,100632.47
2022-08-16T13:03:29.130Z,100670.91
2022-08-16T13:05:59.616Z,100687.84
2022-08-16T13:08:30.723Z,100696.22
2022-08-16T13:11:01.889Z,100719.88
2022-08-16T13:13:29.591Z,100693.03
2022-08-16T13:16:03.621Z,100692.63
2022-08-16T13:18:34.512Z,100643.16
2022-08-16T13:21:08.066Z,100665.13
2022-08-16T13:23:43.748Z,100675.31
2022-08-16T13:26:11.046Z,100673.13
2022-08-16T13:28:38.357Z,100660.88
2022-08-16T13:31:05.857Z,100669.16
2022-08-16T13:33:37.161Z,100658.81
2022-08-16T13:36:21.224Z,100625.78
2022-08-16T13:38:57.665Z,100600.81
2022-08-16T13:41:26.949Z,100617.44
2022-08-16T13:43:59.733Z,100674.84
2022-08-16T13:46:28.868Z,100660.44
2022-08-16T13:48:58.032Z,100670.09
2022-08-16T13:51:29.392Z,100680.38
2022-08-16T13:54:04.092Z,100695.38
2022-08-16T13:56:37.446Z,100646.84
2022-08-16T13:59:13.897Z,100605.81
2022-08-16T14:01:55.155Z,100607.22
2022-08-16T14:04:26.499Z,100594.03
2022-08-16T14:06:55.456Z,100617.31
2022-08-16T14:09:24.864Z,100632.50
2022-08-16T14:11:54.967Z,100622.72
2022-08-16T14:14:28.517Z,100641.09
2022-08-16T14:16:58.661Z,100614.63
2022-08-16T14:19:27.885Z,100613.72
2022-08-16T14:22:14.479Z,100650.06
2022-08-16T14:24:47.405Z,100667.13
2022-08-16T14:27:21.340Z,100685.00
2022-08-16T14:29:50.911Z,100667.16
2022-08-16T14:32:33.885Z,100680.38
2022-08-16T14:35:14.097Z,100694.50
2022-08-16T14:37:43.391Z,100713.97
2022-08-16T14:40:13.454Z,100701.06
2022-08-16T14:42:44.161Z,100709.13
2022-08-16T14:45:15.598Z,100670.72
2022-08-16T14:47:44.553Z,100666.25
2022-08-16T14:50:15.249Z,100667.41
2022-08-16T14:52:56.228Z,100645.72
2022-08-16T14:55:24.884Z,100675.47
2022-08-16T14:57:54.518Z,100665.44
2022-08-16T15:00:32.898Z,100669.47
2022-08-16T15:03:02.539Z,100604.28
2022-08-16T15:07:59.054Z,100596.19
2022-08-16T15:10:29.449Z,100538.91
2022-08-16T15:13:01.068Z,100565.56
2022-08-16T15:15:30.667Z,100540.31
2022-08-16T15:18:01.473Z,100560.13
2022-08-16T15:20:34.029Z,100574.06
2022-08-16T15:23:05.293Z,100536.81
2022-08-16T15:25:41.102Z,100559.34
2022-08-16T15:28:30.982Z,100564.72
2022-08-16T15:31:03.413Z,100597.19
2022-08-16T15:33:35.150Z,100579.34
2022-08-16T15:36:03.809Z,100586.81
2022-08-16T15:39:02.937Z,100615.66
2022-08-16T15:41:31.513Z,100602.06
2022-08-16T15:44:05.216Z,100630.56
2022-08-16T15:46:56.371Z,100648.75
2022-08-16T15:49:34.520Z,100620.69
2022-08-16T15:52:20.664Z,100641.38
2022-08-16T15:54:53.191Z,100675.94
2022-08-16T15:57:25.171Z,100699.81
2022-08-16T15:59:55.800Z,100706.81
2022-08-16T16:02:30.763Z,100719.38
2022-08-16T16:05:01.860Z,100727.97
2022-08-16T16:07:31.319Z,100713.50
2022-08-16T16:10:00.765Z,100721.69
2022-08-16T16:12:54.164Z,100743.78
2022-08-16T16:15:19.663Z,100750.28
2022-08-16T16:17:50.996Z,100750.84
2022-08-16T16:20:27.307Z,100746.56
2022-08-16T16:23:04.446Z,100738.81
2022-08-16T16:25:44.680Z,100729.31
2022-08-16T16:29:05.011Z,100718.41
2022-08-16T16:31:02.966Z,100675.50
2022-08-16T16:33:30.997Z,100660.06
2022-08-16T16:36:04.012Z,100651.53
2022-08-16T16:38:35.611Z,100681.84
2022-08-16T16:41:09.921Z,100673.78
2022-08-16T16:43:40.920Z,100683.41
2022-08-16T16:46:40.719Z,100667.41
2022-08-16T16:48:58.239Z,100658.22
2022-08-16T16:51:28.012Z,100652.47
2022-08-16T16:53:57.544Z,100654.44
2022-08-16T16:56:32.217Z,100673.16
2022-08-16T16:59:06.969Z,100651.28
2022-08-16T17:01:59.608Z,100677.69
2022-08-16T17:04:31.729Z,100646.63
2022-08-16T17:07:01.598Z,100664.03
2022-08-16T17:09:29.548Z,100672.44
2022-08-16T17:11:56.977Z,100672.72
2022-08-16T17:17:13.131Z,100721.44
2022-08-16T17:19:41.651Z,100728.69
2022-08-16T17:22:15.516Z,100746.72
2022-08-16T17:24:50.581Z,100763.03
2022-08-16T17:27:34.173Z,100761.53
2022-08-16T17:30:15.747Z,100776.53
2022-08-16T17:32:54.661Z,100794.13
2022-08-16T17:35:33.971Z,100808.91
2022-08-16T17:38:39.046Z,100822.22
2022-08-16T17:39:28.064Z,100706.00
2022-08-16T17:41:09.999Z,100824.53
2022-08-16T17:43:44.371Z,100820.06
2022-08-16T17:46:41.485Z,100847.25
2022-08-16T17:49:02.970Z,100854.47
2022-08-16T17:51:30.988Z,100874.53
2022-08-16T17:53:58.783Z,100867.25
2022-08-16T17:56:26.192Z,100884.16
2022-08-16T17:58:54.457Z,100889.91
2022-08-16T18:01:25.731Z,100896.06
2022-08-16T18:04:06.638Z,100903.28
2022-08-16T18:06:36.868Z,100907.03
2022-08-16T18:09:04.230Z,100903.94
2022-08-16T18:11:35.735Z,100917.75
2022-08-16T18:14:04.120Z,100911.94
2022-08-16T18:16:32.419Z,100914.47
2022-08-16T18:19:00.507Z,100918.16
2022-08-16T18:21:46.715Z,100917.34
2022-08-16T18:24:15.095Z,100921.91
2022-08-16T18:26:42.214Z,100931.50
2022-08-16T18:29:09.272Z,100931.69
2022-08-16T18:31:36.481Z,100941.22
2022-08-16T18:34:03.582Z,100949.69
2022-08-16T18:36:31.857Z,100948.09
2022-08-16T18:38:59.308Z,100951.72
2022-08-16T18:41:26.824Z,100955.69
2022-08-16T18:43:58.769Z,100960.06
2022-08-16T18:46:43.408Z,100962.56
2022-08-16T18:49:11.864Z,100973.28
2022-08-16T18:51:44.892Z,100965.34
2022-08-16T18:54:16.709Z,100976.78
2022-08-16T18:56:55.932Z,100974.38
2022-08-16T18:59:27.474Z,100981.84
2022-08-16T19:01:59.766Z,100982.72
2022-08-16T19:04:56.197Z,100988.25
2022-08-16T19:07:16.486Z,100996.31
2022-08-16T19:09:45.909Z,101008.28
2022-08-16T19:12:15.682Z,101007.47
2022-08-16T19:14:45.697Z,101005.09
2022-08-16T19:17:12.556Z,101008.56
2022-08-16T19:19:39.816Z,101005.91
2022-08-16T19:22:06.594Z,101010.56
2022-08-16T19:24:33.398Z,101012.91
2022-08-16T19:27:01.764Z,101008.72
2022-08-16T19:29:29.471Z,101006.63
2022-08-16T19:31:56.686Z,101010.75
2022-08-16T19:34:23.613Z,101004.50
2022-08-16T19:36:50.517Z,101016.88
2022-08-16T19:39:17.572Z,101017.22
2022-08-16T19:41:52.098Z,101017.97
2022-08-16T19:44:21.590Z,101016.25
2022-08-16T19:46:49.443Z,101018.81
2022-08-16T19:49:17.053Z,101021.63
2022-08-16T19:51:46.251Z,101021.00
2022-08-16T19:54:12.988Z,101023.06
2022-08-16T19:56:39.731Z,101019.44
2022-08-16T19:59:39.663Z,101022.19
2022-08-16T20:01:53.642Z,101020.34
2022-08-16T20:04:22.703Z,101020.16
2022-08-16T20:06:52.436Z,101025.19
2022-08-16T20:09:20.812Z,101014.84
2022-08-16T20:11:49.614Z,101014.00
2022-08-16T20:14:24.899Z,101018.00
2022-08-16T20:16:54.518Z,101028.59
2022-08-16T20:19:21.226Z,101026.69
2022-08-16T20:21:48.090Z,101023.25
2022-08-16T20:24:33.663Z,101024.81
2022-08-16T20:27:02.954Z,101018.97
2022-08-16T20:29:29.746Z,101017.94
2022-08-16T20:31:57.595Z,101016.34
2022-08-16T20:34:24.366Z,101016.91
2022-08-16T20:36:51.089Z,101007.25
2022-08-16T20:39:17.826Z,101011.53
2022-08-16T20:41:44.655Z,101010.50
2022-08-16T20:44:12.774Z,101004.09
2022-08-16T20:46:39.544Z,100989.78
2022-08-16T20:49:09.348Z,100983.22
2022-08-16T20:51:46.979Z,100979.25
2022-08-16T20:54:20.270Z,100972.34
2022-08-16T20:56:49.007Z,100974.09
2022-08-16T20:59:17.277Z,100978.41
2022-08-16T21:01:49.696Z,100972.50
2022-08-16T21:04:22.796Z,100961.94
2022-08-16T21:06:54.226Z,100957.44
2022-08-16T21:09:28.160Z,100946.94
2022-08-16T21:11:57.978Z,100947.63
2022-08-16T21:14:26.572Z,100935.53
2022-08-16T21:16:56.247Z,100927.06
2022-08-16T21:19:24.521Z,100907.97
2022-08-16T21:21:53.736Z,100903.66
2022-08-16T21:24:21.864Z,100897.63
2022-08-16T21:26:55.589Z,100898.13
2022-08-16T21:29:28.432Z,100897.09
2022-08-16T21:32:13.902Z,100906.25
2022-08-16T21:34:42.282Z,100892.78
2022-08-16T21:37:10.844Z,100893.31
2022-08-16T21:39:38.853Z,100892.09
2022-08-16T21:42:15.210Z,100886.06
2022-08-16T21:44:44.511Z,100881.38
2022-08-16T21:47:12.515Z,100875.88
2022-08-16T21:49:40.696Z,100872.09
2022-08-16T21:52:25.932Z,100862.13
2022-08-16T21:54:56.267Z,100848.47
2022-08-16T21:57:23.942Z,100839.00
2022-08-16T21:59:52.381Z,100842.09
2022-08-16T22:02:21.107Z,100845.91
2022-08-16T22:04:49.818Z,100847.44
2022-08-16T22:07:18.336Z,100847.44
2022-08-16T22:09:47.709Z,100853.97
2022-08-16T22:12:24.375Z,100859.34
2022-08-16T22:14:51.160Z,100861.91
2022-08-16T22:17:18.426Z,100853.47
2022-08-16T22:19:47.969Z,100853.81
2022-08-16T22:22:15.417Z,100860.19
2022-08-16T22:24:42.170Z,100852.78
2022-08-16T22:27:09.016Z,100859.84
2022-08-16T22:29:39.501Z,100847.97
2022-08-16T22:32:09.370Z,100849.34
2022-08-16T22:34:37.581Z,100843.16
2022-08-16T22:37:05.466Z,100836.94
2022-08-16T22:39:33.899Z,100839.69
2022-08-16T22:42:08.893Z,100836.41
2022-08-16T22:44:37.911Z,100822.28
2022-08-16T22:47:05.161Z,100811.44
2022-08-16T22:49:33.554Z,100809.50
2022-08-16T22:52:09.578Z,100802.63
2022-08-16T22:54:48.142Z,100793.50
2022-08-16T22:57:16.785Z,100803.50
2022-08-16T22:59:47.138Z,100803.66
2022-08-16T23:02:19.627Z,100800.72
2022-08-16T23:04:46.396Z,100807.09
2022-08-16T23:07:14.218Z,100803.47
2022-08-16T23:09:41.009Z,100814.81
2022-08-16T23:12:08.342Z,100800.53
2022-08-16T23:14:36.287Z,100795.72
2022-08-16T23:17:03.849Z,100780.66
2022-08-16T23:19:30.934Z,100782.72
2022-08-16T23:21:58.770Z,100771.34
2022-08-16T23:24:27.613Z,100757.94
2022-08-16T23:26:54.355Z,100755.66
2022-08-16T23:29:25.184Z,100755.50
2022-08-16T23:32:09.050Z,100763.31
2022-08-16T23:34:35.867Z,100755.91
2022-08-16T23:37:02.653Z,100734.03
2022-08-16T23:39:30.928Z,100723.53
2022-08-16T23:41:58.865Z,100714.25
2022-08-16T23:44:42.280Z,100706.69
2022-08-16T23:47:15.327Z,100696.84
2022-08-16T23:49:57.136Z,100705.94
2022-08-16T23:52:53.299Z,100703.94
2022-08-16T23:55:17.376Z,100681.94
2022-08-16T23:57:44.877Z,100671.19
